createdAt,value
2023-03-27T00:00:06.742Z,6.43
2023-03-27T00:01:06.774Z,6.61
2023-03-27T00:02:06.851Z,10.20
2023-03-27T00:03:06.996Z,8.09
2023-03-27T00:04:06.860Z,5.28
2023-03-27T00:05:06.844Z,6.43
2023-03-27T00:06:07.088Z,7.26
2023-03-27T00:07:06.858Z,5.95
2023-03-27T00:08:06.903Z,5.95
2023-03-27T00:09:06.940Z,6.14
2023-03-27T00:10:07.000Z,8.00
2023-03-27T00:11:07.077Z,8.36
2023-03-27T00:12:07.101Z,10.37
2023-03-27T00:13:07.112Z,8.98
2023-03-27T00:14:07.120Z,14.84
2023-03-27T00:15:07.132Z,15.68
2023-03-27T00:16:07.141Z,14.13
2023-03-27T00:17:07.270Z,14.91
2023-03-27T00:18:07.229Z,13.10
2023-03-27T00:19:07.251Z,14.13
2023-03-27T00:20:07.250Z,13.58
2023-03-27T00:21:07.262Z,11.05
2023-03-27T00:22:07.296Z,12.54
2023-03-27T00:23:07.326Z,12.21
2023-03-27T00:24:07.338Z,13.10
2023-03-27T00:25:07.369Z,11.63
2023-03-27T00:26:07.373Z,11.30
2023-03-27T00:27:07.357Z,12.78
2023-03-27T00:28:07.651Z,11.30
2023-03-27T00:29:07.394Z,11.88
2023-03-27T00:30:07.493Z,9.77
2023-03-27T00:31:07.544Z,12.45
2023-03-27T00:32:07.527Z,10.20
2023-03-27T00:33:07.601Z,11.88
2023-03-27T00:34:07.584Z,10.63
2023-03-27T00:35:07.595Z,12.70
2023-03-27T00:36:07.641Z,12.45
2023-03-27T00:37:07.597Z,13.10
2023-03-27T00:38:07.678Z,12.78
2023-03-27T00:39:07.737Z,11.47
2023-03-27T00:40:07.707Z,10.71
2023-03-27T00:41:07.814Z,10.63
2023-03-27T00:42:07.817Z,6.80
2023-03-27T00:43:07.838Z,6.52
2023-03-27T00:44:07.877Z,5.95
2023-03-27T00:45:07.981Z,8.80
2023-03-27T00:46:08.239Z,12.13
2023-03-27T00:47:08.007Z,10.54
2023-03-27T00:48:08.034Z,10.88
2023-03-27T00:49:08.071Z,10.79
2023-03-27T00:50:08.044Z,9.51
2023-03-27T00:51:08.034Z,10.11
2023-03-27T00:52:08.140Z,12.13
2023-03-27T00:53:08.158Z,12.37
2023-03-27T00:54:08.190Z,13.42
2023-03-27T00:55:08.170Z,12.94
2023-03-27T00:56:08.238Z,11.47
2023-03-27T00:57:08.324Z,10.63
2023-03-27T00:58:08.289Z,8.53
2023-03-27T00:59:08.292Z,11.22
2023-03-27T01:00:09.483Z,12.21
2023-03-27T01:01:08.393Z,10.63
2023-03-27T01:02:08.330Z,11.80
2023-03-27T01:03:08.481Z,11.05
2023-03-27T01:04:08.401Z,10.54
2023-03-27T01:05:08.495Z,8.71
2023-03-27T01:06:08.425Z,11.30
2023-03-27T01:07:08.515Z,9.85
2023-03-27T01:08:13.540Z,10.88
2023-03-27T01:09:08.463Z,12.45
2023-03-27T01:10:08.542Z,11.72
2023-03-27T01:11:08.650Z,12.54
2023-03-27T01:12:08.587Z,13.66
2023-03-27T01:13:08.580Z,11.88
2023-03-27T01:14:08.589Z,11.38
2023-03-27T01:15:08.589Z,12.54
2023-03-27T01:16:08.654Z,12.21
2023-03-27T01:17:08.621Z,11.72
2023-03-27T01:18:08.645Z,13.58
2023-03-27T01:19:08.631Z,14.13
2023-03-27T01:20:08.640Z,13.02
2023-03-27T01:21:08.645Z,12.45
2023-03-27T01:22:08.659Z,13.98
2023-03-27T01:23:08.653Z,12.37
2023-03-27T01:24:08.660Z,13.66
2023-03-27T01:25:08.667Z,13.74
2023-03-27T01:26:08.690Z,12.37
2023-03-27T01:27:08.702Z,14.13
2023-03-27T01:28:08.693Z,12.78
2023-03-27T01:29:08.697Z,11.96
2023-03-27T01:30:08.701Z,12.29
2023-03-27T01:31:08.720Z,13.02
2023-03-27T01:32:08.705Z,12.86
2023-03-27T01:33:08.750Z,13.98
2023-03-27T01:34:08.732Z,12.62
2023-03-27T01:35:08.745Z,14.06
2023-03-27T01:36:08.759Z,13.90
2023-03-27T01:37:08.777Z,15.07
2023-03-27T01:38:08.770Z,14.91
2023-03-27T01:39:08.821Z,14.21
2023-03-27T01:40:08.833Z,15.53
2023-03-27T01:41:08.824Z,14.91
2023-03-27T01:42:08.916Z,14.45
2023-03-27T01:43:08.837Z,13.50
2023-03-27T01:44:08.825Z,13.66
2023-03-27T01:45:08.872Z,14.91
2023-03-27T01:46:08.906Z,13.98
2023-03-27T01:47:09.550Z,13.34
2023-03-27T01:48:08.979Z,16.06
2023-03-27T01:49:09.056Z,15.22
2023-03-27T01:50:09.013Z,15.37
2023-03-27T01:51:09.025Z,15.14
2023-03-27T01:52:09.053Z,14.91
2023-03-27T01:53:09.047Z,14.13
2023-03-27T01:54:09.077Z,13.74
2023-03-27T01:55:09.129Z,15.14
2023-03-27T01:56:09.140Z,14.60
2023-03-27T01:57:09.168Z,15.30
2023-03-27T01:58:09.148Z,13.42
2023-03-27T01:59:09.156Z,10.71
2023-03-27T02:00:18.659Z,13.98
2023-03-27T02:01:09.527Z,16.44
2023-03-27T02:02:09.379Z,15.07
2023-03-27T02:03:09.293Z,14.45
2023-03-27T02:04:09.298Z,14.60
2023-03-27T02:05:09.380Z,14.06
2023-03-27T02:06:09.340Z,13.98
2023-03-27T02:07:09.332Z,10.37
2023-03-27T02:08:09.390Z,10.03
2023-03-27T02:09:09.413Z,10.37
2023-03-27T02:10:09.437Z,10.71
2023-03-27T02:11:09.536Z,9.24
2023-03-27T02:12:09.575Z,9.33
2023-03-27T02:13:09.609Z,8.89
2023-03-27T02:14:09.660Z,10.28
2023-03-27T02:15:23.471Z,8.62
2023-03-27T02:16:09.740Z,9.24
2023-03-27T02:17:09.777Z,7.17
2023-03-27T02:18:09.859Z,8.09
2023-03-27T02:19:09.841Z,7.90
2023-03-27T02:20:09.871Z,11.22
2023-03-27T02:21:09.868Z,9.59
2023-03-27T02:22:09.928Z,12.78
2023-03-27T02:23:09.957Z,14.29
2023-03-27T02:24:09.931Z,14.29
2023-03-27T02:25:09.993Z,15.30
2023-03-27T02:26:09.989Z,13.26
2023-03-27T02:27:10.062Z,13.02
2023-03-27T02:28:10.076Z,9.77
2023-03-27T02:29:10.074Z,14.84
2023-03-27T02:30:10.112Z,13.02
2023-03-27T02:31:32.984Z,15.22
2023-03-27T02:32:10.170Z,15.76
2023-03-27T02:33:10.291Z,17.48
2023-03-27T02:34:10.182Z,17.18
2023-03-27T02:35:10.190Z,16.44
2023-03-27T02:36:11.296Z,17.99
2023-03-27T02:37:10.246Z,17.92
2023-03-27T02:38:10.269Z,18.57
2023-03-27T02:39:10.333Z,17.55
2023-03-27T02:40:10.328Z,17.62
2023-03-27T02:41:10.327Z,18.43
2023-03-27T02:42:10.320Z,16.88
2023-03-27T02:43:10.348Z,18.06
2023-03-27T02:44:10.382Z,18.36
2023-03-27T02:45:10.379Z,18.50
2023-03-27T02:46:10.435Z,18.21
2023-03-27T02:47:10.432Z,17.99
2023-03-27T02:48:10.463Z,17.99
2023-03-27T02:49:10.466Z,17.84
2023-03-27T02:50:10.526Z,19.15
2023-03-27T02:51:10.565Z,18.79
2023-03-27T02:52:10.613Z,19.08
2023-03-27T02:53:10.605Z,17.48
2023-03-27T02:54:10.626Z,19.37
2023-03-27T02:55:10.666Z,18.21
2023-03-27T02:56:10.678Z,17.62
2023-03-27T02:57:10.729Z,19.01
2023-03-27T02:58:10.722Z,17.84
2023-03-27T02:59:10.754Z,18.50
2023-03-27T03:00:10.786Z,17.48
2023-03-27T03:01:10.882Z,19.29
2023-03-27T03:02:10.835Z,17.77
2023-03-27T03:03:10.883Z,18.21
2023-03-27T03:04:10.795Z,18.50
2023-03-27T03:05:10.827Z,19.08
2023-03-27T03:06:10.868Z,19.15
2023-03-27T03:07:10.888Z,19.80
2023-03-27T03:08:10.902Z,19.22
2023-03-27T03:09:10.921Z,19.29
2023-03-27T03:10:10.915Z,18.79
2023-03-27T03:11:10.925Z,18.79
2023-03-27T03:12:10.953Z,19.08
2023-03-27T03:13:10.959Z,18.79
2023-03-27T03:14:10.977Z,17.92
2023-03-27T03:15:10.993Z,17.70
2023-03-27T03:16:11.063Z,17.99
2023-03-27T03:17:11.092Z,18.28
2023-03-27T03:18:11.096Z,18.57
2023-03-27T03:19:11.091Z,18.57
2023-03-27T03:20:11.124Z,19.44
2023-03-27T03:21:11.128Z,19.29
2023-03-27T03:22:11.140Z,18.65
2023-03-27T03:23:11.149Z,17.84
2023-03-27T03:24:11.148Z,18.57
2023-03-27T03:25:11.145Z,20.44
2023-03-27T03:26:11.223Z,20.08
2023-03-27T03:27:11.207Z,18.06
2023-03-27T03:28:11.313Z,18.36
2023-03-27T03:29:12.878Z,18.21
2023-03-27T03:30:11.353Z,18.14
2023-03-27T03:31:11.503Z,19.44
2023-03-27T03:32:11.425Z,18.86
2023-03-27T03:33:11.444Z,17.92
2023-03-27T03:34:11.481Z,18.79
2023-03-27T03:35:11.475Z,18.21
2023-03-27T03:36:11.492Z,18.50
2023-03-27T03:37:11.488Z,17.92
2023-03-27T03:38:11.491Z,18.06
2023-03-27T03:39:11.513Z,17.18
2023-03-27T03:40:11.509Z,18.79
2023-03-27T03:41:11.507Z,17.92
2023-03-27T03:42:22.673Z,18.50
2023-03-27T03:43:11.566Z,19.44
2023-03-27T03:44:11.595Z,18.65
2023-03-27T03:45:11.592Z,18.28
2023-03-27T03:46:11.618Z,18.28
2023-03-27T03:47:11.581Z,19.01
2023-03-27T03:48:11.579Z,19.51
2023-03-27T03:49:11.750Z,17.99
2023-03-27T03:50:11.707Z,19.01
2023-03-27T03:51:11.709Z,19.22
2023-03-27T03:52:11.705Z,19.15
2023-03-27T03:53:11.689Z,19.51
2023-03-27T03:54:11.707Z,20.15
2023-03-27T03:55:11.739Z,18.28
2023-03-27T03:56:11.706Z,19.08
2023-03-27T03:57:11.762Z,20.08
2023-03-27T03:58:11.683Z,18.93
2023-03-27T03:59:11.824Z,20.15
2023-03-27T04:00:11.809Z,20.08
2023-03-27T04:01:11.798Z,18.86
2023-03-27T04:02:11.882Z,19.51
2023-03-27T04:03:11.982Z,21.43
2023-03-27T04:04:11.922Z,20.58
2023-03-27T04:05:12.626Z,20.44
2023-03-27T04:06:11.982Z,20.58
2023-03-27T04:07:11.982Z,19.94
2023-03-27T04:08:11.980Z,19.15
2023-03-27T04:09:12.912Z,18.14
2023-03-27T04:10:12.050Z,16.58
2023-03-27T04:11:12.081Z,16.58
2023-03-27T04:12:12.204Z,20.01
2023-03-27T04:13:12.143Z,21.07
2023-03-27T04:14:13.115Z,20.93
2023-03-27T04:15:12.202Z,20.86
2023-03-27T04:16:12.266Z,20.86
2023-03-27T04:17:12.286Z,19.51
2023-03-27T04:18:12.393Z,21.14
2023-03-27T04:19:12.382Z,20.58
2023-03-27T04:20:12.372Z,21.14
2023-03-27T04:21:12.440Z,21.43
2023-03-27T04:22:12.439Z,21.64
2023-03-27T04:23:12.449Z,20.86
2023-03-27T04:24:12.466Z,21.64
2023-03-27T04:25:12.503Z,21.43
2023-03-27T04:26:12.650Z,19.94
2023-03-27T04:27:12.599Z,20.08
2023-03-27T04:28:12.648Z,21.14
2023-03-27T04:29:12.697Z,20.79
2023-03-27T04:30:12.737Z,20.01
2023-03-27T04:31:12.856Z,21.85
2023-03-27T04:32:12.837Z,20.86
2023-03-27T04:33:12.801Z,20.08
2023-03-27T04:34:12.832Z,20.37
2023-03-27T04:35:12.886Z,20.72
2023-03-27T04:36:12.971Z,21.14
2023-03-27T04:37:12.954Z,18.93
2023-03-27T04:38:12.995Z,20.01
2023-03-27T04:39:13.047Z,21.85
2023-03-27T04:40:13.129Z,21.07
2023-03-27T04:41:13.066Z,20.51
2023-03-27T04:42:13.123Z,20.79
2023-03-27T04:43:13.138Z,21.43
2023-03-27T04:44:13.172Z,20.65
2023-03-27T04:45:13.269Z,20.58
2023-03-27T04:46:13.368Z,21.28
2023-03-27T04:47:13.302Z,21.00
2023-03-27T04:48:13.263Z,20.79
2023-03-27T04:49:13.479Z,20.86
2023-03-27T04:50:13.375Z,21.00
2023-03-27T04:51:13.415Z,21.35
2023-03-27T04:52:13.451Z,21.14
2023-03-27T04:53:13.492Z,21.64
2023-03-27T04:54:13.542Z,21.21
2023-03-27T04:55:13.585Z,21.28
2023-03-27T04:56:13.644Z,22.06
2023-03-27T04:57:13.716Z,21.99
2023-03-27T04:58:13.728Z,21.64
2023-03-27T04:59:13.808Z,20.15
2023-03-27T05:00:13.843Z,21.57
2023-03-27T05:01:13.950Z,21.28
2023-03-27T05:02:13.894Z,20.51
2023-03-27T05:03:14.104Z,20.22
2023-03-27T05:04:13.951Z,20.01
2023-03-27T05:05:13.984Z,21.35
2023-03-27T05:06:13.991Z,20.58
2023-03-27T05:07:14.008Z,21.92
2023-03-27T05:08:14.110Z,21.35
2023-03-27T05:09:14.107Z,21.57
2023-03-27T05:10:14.135Z,20.65
2023-03-27T05:11:14.154Z,21.57
2023-03-27T05:12:14.194Z,20.93
2023-03-27T05:13:14.238Z,21.21
2023-03-27T05:14:14.242Z,20.86
2023-03-27T05:15:14.468Z,22.06
2023-03-27T05:16:14.459Z,20.72
2023-03-27T05:17:14.403Z,21.07
2023-03-27T05:18:14.403Z,21.07
2023-03-27T05:19:14.397Z,21.28
2023-03-27T05:20:14.550Z,20.51
2023-03-27T05:21:14.508Z,20.51
2023-03-27T05:22:14.502Z,21.14
2023-03-27T05:23:14.453Z,21.43
2023-03-27T05:24:14.453Z,21.71
2023-03-27T05:25:14.446Z,21.64
2023-03-27T05:26:14.465Z,20.79
2023-03-27T05:27:14.488Z,20.65
2023-03-27T05:28:14.505Z,19.94
2023-03-27T05:29:14.544Z,20.37
2023-03-27T05:30:14.635Z,21.57
2023-03-27T05:31:14.681Z,21.57
2023-03-27T05:32:14.716Z,22.62
2023-03-27T05:33:14.756Z,20.93
2023-03-27T05:34:14.749Z,19.80
2023-03-27T05:35:14.767Z,21.92
2023-03-27T05:36:14.812Z,21.64
2023-03-27T05:37:14.845Z,20.79
2023-03-27T05:38:14.897Z,19.87
2023-03-27T05:39:14.954Z,21.71
2023-03-27T05:40:15.004Z,20.65
2023-03-27T05:41:15.064Z,19.29
2023-03-27T05:42:15.037Z,19.94
2023-03-27T05:43:15.089Z,19.44
2023-03-27T05:44:15.145Z,20.22
2023-03-27T05:45:15.174Z,20.51
2023-03-27T05:46:21.058Z,19.80
2023-03-27T05:47:15.175Z,19.87
2023-03-27T05:48:15.237Z,20.22
2023-03-27T05:49:15.281Z,21.00
2023-03-27T05:50:15.290Z,21.35
2023-03-27T05:51:15.288Z,18.79
2023-03-27T05:52:15.390Z,18.28
2023-03-27T05:53:15.386Z,19.15
2023-03-27T05:54:15.388Z,19.29
2023-03-27T05:55:15.377Z,19.72
2023-03-27T05:56:15.421Z,15.14
2023-03-27T05:57:15.512Z,19.08
2023-03-27T05:58:15.440Z,19.15
2023-03-27T05:59:15.520Z,17.84
2023-03-27T06:00:15.521Z,16.81
2023-03-27T06:01:15.512Z,17.84
2023-03-27T06:02:15.511Z,17.33
2023-03-27T06:03:15.727Z,18.06
2023-03-27T06:04:15.506Z,18.72
2023-03-27T06:05:15.582Z,18.72
2023-03-27T06:06:15.569Z,18.28
2023-03-27T06:07:15.605Z,19.29
2023-03-27T06:08:15.661Z,19.80
2023-03-27T06:09:15.718Z,21.07
2023-03-27T06:10:15.785Z,19.51
2023-03-27T06:11:15.753Z,20.15
2023-03-27T06:12:15.851Z,18.50
2023-03-27T06:13:15.848Z,18.14
2023-03-27T06:14:15.876Z,19.22
2023-03-27T06:15:15.924Z,18.79
2023-03-27T06:16:16.059Z,19.80
2023-03-27T06:17:15.921Z,20.22
2023-03-27T06:18:15.923Z,19.72
2023-03-27T06:19:15.987Z,19.72
2023-03-27T06:20:16.005Z,19.94
2023-03-27T06:21:16.019Z,19.37
2023-03-27T06:22:16.029Z,19.22
2023-03-27T06:23:16.027Z,18.65
2023-03-27T06:24:16.045Z,18.86
2023-03-27T06:25:16.068Z,19.51
2023-03-27T06:26:16.112Z,19.51
2023-03-27T06:27:16.184Z,19.87
2023-03-27T06:28:16.184Z,19.94
2023-03-27T06:29:16.234Z,19.58
2023-03-27T06:30:16.320Z,20.44
2023-03-27T06:31:16.419Z,18.36
2023-03-27T06:32:16.464Z,12.13
2023-03-27T06:33:16.474Z,19.65
2023-03-27T06:34:16.456Z,19.51
2023-03-27T06:35:16.543Z,15.30
2023-03-27T06:36:16.523Z,21.14
2023-03-27T06:37:16.497Z,20.93
2023-03-27T06:38:16.501Z,18.79
2023-03-27T06:39:16.545Z,9.94
2023-03-27T06:40:16.618Z,17.33
2023-03-27T06:41:16.640Z,17.55
2023-03-27T06:42:16.673Z,17.99
2023-03-27T06:43:16.693Z,11.63
2023-03-27T06:44:16.899Z,11.80
2023-03-27T06:45:17.640Z,10.11
2023-03-27T06:46:17.239Z,13.82
2023-03-27T06:47:17.155Z,15.98
2023-03-27T06:48:21.210Z,10.79
2023-03-27T06:49:17.983Z,10.63
2023-03-27T06:50:17.488Z,9.33
2023-03-27T06:51:16.982Z,8.27
2023-03-27T06:52:16.969Z,9.51
2023-03-27T06:53:26.369Z,10.28
2023-03-27T06:54:16.978Z,7.36
2023-03-27T06:55:17.011Z,8.27
2023-03-27T06:56:17.057Z,6.05
2023-03-27T06:57:17.100Z,6.71
2023-03-27T06:58:17.077Z,6.43
2023-03-27T06:59:17.394Z,5.09
2023-03-27T07:00:17.436Z,8.27
2023-03-27T07:01:17.777Z,7.72
2023-03-27T07:02:17.782Z,6.33
2023-03-27T07:03:17.701Z,7.72
2023-03-27T07:04:18.202Z,8.53
2023-03-27T07:05:18.038Z,6.89
2023-03-27T07:06:18.002Z,10.88
2023-03-27T07:07:17.700Z,3.91
2023-03-27T07:09:18.248Z,4.21
2023-03-27T07:10:17.509Z,2.28
2023-03-27T07:11:18.375Z,1.65
2023-03-27T07:12:17.553Z,2.17
2023-03-27T07:13:17.611Z,1.22
2023-03-27T07:14:17.667Z,5.38
2023-03-27T07:15:17.774Z,2.17
2023-03-27T07:16:18.201Z,2.38
2023-03-27T07:17:17.902Z,1.22
2023-03-27T07:18:17.900Z,3.51
2023-03-27T07:19:17.867Z,2.28
2023-03-27T07:20:17.924Z,1.01
2023-03-27T07:21:18.015Z,1.44
2023-03-27T07:22:17.953Z,1.96
2023-03-27T07:23:17.985Z,2.38
2023-03-27T07:24:17.975Z,1.33
2023-03-27T07:25:17.973Z,0.00
2023-03-27T07:26:17.993Z,0.00
2023-03-27T07:27:18.101Z,0.00
2023-03-27T07:28:18.045Z,1.75
2023-03-27T07:29:18.088Z,1.54
2023-03-27T07:30:18.064Z,0.90
2023-03-27T07:31:32.663Z,0.00
2023-03-27T07:32:29.770Z,0.00
2023-03-27T07:33:18.265Z,1.96
2023-03-27T07:34:18.428Z,0.90
2023-03-27T07:35:18.295Z,3.81
2023-03-27T07:36:18.365Z,0.00
2023-03-27T07:37:18.342Z,0.00
2023-03-27T07:38:18.423Z,3.51
2023-03-27T07:39:19.391Z,0.47
2023-03-27T07:40:19.921Z,0.00
2023-03-27T07:41:18.506Z,0.47
2023-03-27T07:42:18.549Z,3.30
2023-03-27T07:43:18.648Z,1.54
2023-03-27T07:44:18.639Z,5.28
2023-03-27T07:45:18.646Z,1.22
2023-03-27T07:46:18.720Z,3.10
2023-03-27T07:47:18.660Z,3.20
2023-03-27T07:48:18.895Z,0.00
2023-03-27T07:49:18.792Z,2.17
2023-03-27T07:50:18.896Z,0.00
2023-03-27T07:51:18.886Z,0.00
2023-03-27T07:52:18.956Z,0.80
2023-03-27T07:53:32.878Z,1.65
2023-03-27T07:54:19.028Z,3.91
2023-03-27T07:55:20.103Z,1.12
2023-03-27T07:56:19.104Z,3.61
2023-03-27T07:57:19.189Z,2.38
2023-03-27T07:58:19.951Z,2.28
2023-03-27T07:59:19.187Z,2.79
2023-03-27T08:00:19.239Z,3.40
2023-03-27T08:01:19.293Z,1.86
2023-03-27T08:02:19.319Z,1.44
2023-03-27T08:03:19.458Z,2.38
2023-03-27T08:04:19.559Z,1.75
2023-03-27T08:05:19.453Z,2.07
2023-03-27T08:06:19.486Z,0.90
2023-03-27T08:07:19.503Z,0.00
2023-03-27T08:08:19.603Z,2.69
2023-03-27T08:09:19.556Z,1.33
2023-03-27T08:10:19.548Z,0.00
2023-03-27T08:11:30.044Z,0.00
2023-03-27T08:12:19.575Z,1.12
2023-03-27T08:13:19.561Z,0.00
2023-03-27T08:14:19.610Z,2.69
2023-03-27T08:15:19.773Z,5.86
2023-03-27T08:16:19.673Z,2.90
2023-03-27T08:17:21.966Z,0.00
2023-03-27T08:18:19.711Z,0.00
2023-03-27T08:19:19.702Z,0.00
2023-03-27T08:20:19.746Z,0.00
2023-03-27T08:21:19.768Z,0.47
2023-03-27T08:22:19.797Z,2.07
2023-03-27T08:23:19.793Z,1.75
2023-03-27T08:24:19.870Z,0.00
2023-03-27T08:25:19.888Z,0.00
2023-03-27T08:26:19.882Z,1.33
2023-03-27T08:27:19.962Z,0.47
2023-03-27T08:28:19.950Z,2.07
2023-03-27T08:29:19.993Z,1.96
2023-03-27T08:30:20.008Z,0.80
2023-03-27T08:31:20.013Z,2.79
2023-03-27T08:32:20.013Z,1.96
2023-03-27T08:33:20.055Z,1.65
2023-03-27T08:34:20.094Z,2.59
2023-03-27T08:35:20.097Z,2.90
2023-03-27T08:36:20.139Z,0.90
2023-03-27T08:37:20.148Z,3.10
2023-03-27T08:38:26.765Z,3.71
2023-03-27T08:39:20.239Z,3.20
2023-03-27T08:40:20.231Z,4.60
2023-03-27T08:41:20.255Z,0.80
2023-03-27T08:42:20.295Z,0.00
2023-03-27T08:43:20.447Z,3.10
2023-03-27T08:44:20.452Z,0.69
2023-03-27T08:45:20.473Z,2.69
2023-03-27T08:46:20.523Z,3.40
2023-03-27T08:47:21.493Z,4.01
2023-03-27T08:48:21.777Z,1.86
2023-03-27T08:49:20.488Z,0.80
2023-03-27T08:50:20.604Z,0.00
2023-03-27T08:51:20.590Z,1.01
2023-03-27T08:52:20.598Z,1.86
2023-03-27T08:53:20.629Z,4.30
2023-03-27T08:54:20.666Z,0.00
2023-03-27T08:55:20.759Z,1.86
2023-03-27T08:56:20.699Z,2.07
2023-03-27T08:57:20.773Z,3.71
2023-03-27T08:58:20.788Z,3.20
2023-03-27T08:59:20.775Z,1.44
2023-03-27T09:00:23.391Z,0.00
2023-03-27T09:01:20.819Z,0.00
2023-03-27T09:02:20.916Z,1.33
2023-03-27T09:03:20.977Z,3.40
2023-03-27T09:04:20.891Z,1.22
2023-03-27T09:05:20.892Z,1.75
2023-03-27T09:06:20.991Z,3.91
2023-03-27T09:07:20.931Z,2.17
2023-03-27T09:08:20.980Z,1.65
2023-03-27T09:09:21.226Z,0.80
2023-03-27T09:10:21.084Z,0.00
2023-03-27T09:11:21.835Z,1.86
2023-03-27T09:12:21.101Z,2.59
2023-03-27T09:13:21.158Z,2.28
2023-03-27T09:14:21.313Z,1.01
2023-03-27T09:15:21.205Z,3.30
2023-03-27T09:16:21.294Z,1.75
2023-03-27T09:17:21.286Z,2.28
2023-03-27T09:18:21.230Z,4.21
2023-03-27T09:19:21.285Z,4.30
2023-03-27T09:20:21.351Z,0.00
2023-03-27T09:21:21.324Z,4.01
2023-03-27T09:22:21.393Z,0.00
2023-03-27T09:23:21.397Z,0.00
2023-03-27T09:24:21.409Z,2.17
2023-03-27T09:25:21.521Z,0.58
2023-03-27T09:26:21.480Z,3.61
2023-03-27T09:27:21.486Z,3.10
2023-03-27T09:28:21.501Z,2.79
2023-03-27T09:29:21.474Z,0.47
2023-03-27T09:30:21.629Z,3.71
2023-03-27T09:31:21.620Z,1.22
2023-03-27T09:32:21.600Z,0.58
2023-03-27T09:33:21.632Z,2.59
2023-03-27T09:34:21.620Z,3.71
2023-03-27T09:35:21.704Z,3.40
2023-03-27T09:36:21.666Z,2.38
2023-03-27T09:37:21.692Z,1.44
2023-03-27T09:38:21.927Z,2.69
2023-03-27T09:39:21.743Z,4.89
2023-03-27T09:40:21.755Z,1.65
2023-03-27T09:41:21.782Z,3.30
2023-03-27T09:42:21.830Z,0.00
2023-03-27T09:43:24.281Z,2.28
2023-03-27T09:44:21.931Z,0.90
2023-03-27T09:45:22.010Z,1.44
2023-03-27T09:46:22.059Z,2.79
2023-03-27T09:47:22.097Z,0.80
2023-03-27T09:48:22.099Z,5.48
2023-03-27T09:49:22.159Z,1.75
2023-03-27T09:50:22.220Z,2.07
2023-03-27T09:51:22.221Z,0.58
2023-03-27T09:52:22.309Z,0.00
2023-03-27T09:53:22.324Z,0.80
2023-03-27T09:54:22.368Z,1.12
2023-03-27T09:55:22.355Z,2.07
2023-03-27T09:56:22.348Z,0.90
2023-03-27T09:57:22.486Z,2.17
2023-03-27T09:58:22.400Z,1.44
2023-03-27T09:59:22.475Z,0.69
2023-03-27T10:00:22.604Z,0.00
2023-03-27T10:01:22.948Z,2.07
2023-03-27T10:02:22.711Z,0.00
2023-03-27T10:03:22.684Z,0.00
2023-03-27T10:04:22.791Z,2.38
2023-03-27T10:05:22.708Z,2.69
2023-03-27T10:06:22.775Z,1.96
2023-03-27T10:07:22.729Z,3.51
2023-03-27T10:08:23.789Z,1.12
2023-03-27T10:09:22.817Z,3.20
2023-03-27T10:10:22.880Z,2.79
2023-03-27T10:11:22.829Z,4.21
2023-03-27T10:12:22.866Z,5.67
2023-03-27T10:13:22.844Z,5.57
2023-03-27T10:14:22.923Z,4.01
2023-03-27T10:15:22.968Z,1.12
2023-03-27T10:16:23.029Z,1.75
2023-03-27T10:17:23.126Z,2.28
2023-03-27T10:18:23.007Z,3.71
2023-03-27T10:19:23.065Z,3.61
2023-03-27T10:20:23.077Z,0.90
2023-03-27T10:21:23.142Z,0.80
2023-03-27T10:22:23.179Z,0.00
2023-03-27T10:23:23.240Z,2.48
2023-03-27T10:24:23.246Z,4.11
2023-03-27T10:25:23.295Z,2.07
2023-03-27T10:26:23.368Z,3.00
2023-03-27T10:27:23.448Z,1.33
2023-03-27T10:28:23.483Z,2.38
2023-03-27T10:29:23.541Z,2.07
2023-03-27T10:30:23.666Z,2.69
2023-03-27T10:31:23.625Z,2.59
2023-03-27T10:32:23.683Z,4.11
2023-03-27T10:33:23.700Z,0.00
2023-03-27T10:34:23.788Z,2.90
2023-03-27T10:35:23.633Z,6.52
2023-03-27T10:36:23.676Z,1.33
2023-03-27T10:37:23.708Z,2.17
2023-03-27T10:38:23.756Z,1.86
2023-03-27T10:39:23.826Z,3.00
2023-03-27T10:40:23.920Z,1.01
2023-03-27T10:41:28.100Z,0.00
2023-03-27T10:42:23.992Z,4.50
2023-03-27T10:43:23.929Z,3.40
2023-03-27T10:44:23.962Z,1.33
2023-03-27T10:45:24.056Z,2.90
2023-03-27T10:46:24.068Z,1.12
2023-03-27T10:47:23.987Z,3.61
2023-03-27T10:48:24.027Z,4.60
2023-03-27T10:49:24.164Z,0.69
2023-03-27T10:50:24.091Z,4.60
2023-03-27T10:51:28.404Z,1.54
2023-03-27T10:52:24.311Z,5.57
2023-03-27T10:53:24.253Z,0.00
2023-03-27T10:54:24.281Z,5.09
2023-03-27T10:55:24.234Z,4.30
2023-03-27T10:56:24.294Z,3.10
2023-03-27T10:57:24.338Z,8.27
2023-03-27T10:58:24.372Z,3.40
2023-03-27T10:59:34.766Z,3.71
2023-03-27T11:00:24.439Z,2.59
2023-03-27T11:01:24.491Z,3.51
2023-03-27T11:02:24.426Z,2.28
2023-03-27T11:03:24.502Z,3.61
2023-03-27T11:04:24.562Z,4.60
2023-03-27T11:05:24.567Z,4.11
2023-03-27T11:06:24.583Z,1.22
2023-03-27T11:07:24.610Z,0.58
2023-03-27T11:08:24.636Z,4.30
2023-03-27T11:09:24.630Z,0.47
2023-03-27T11:10:24.631Z,3.20
2023-03-27T11:11:24.646Z,1.96
2023-03-27T11:12:24.652Z,1.44
2023-03-27T11:13:24.678Z,2.48
2023-03-27T11:14:24.730Z,5.76
2023-03-27T11:15:24.756Z,3.10
2023-03-27T11:16:24.866Z,3.71
2023-03-27T11:17:24.930Z,1.96
2023-03-27T11:18:24.934Z,6.24
2023-03-27T11:19:24.949Z,3.71
2023-03-27T11:20:26.311Z,7.81
2023-03-27T11:21:25.010Z,1.01
2023-03-27T11:22:24.932Z,0.90
2023-03-27T11:23:24.914Z,0.00
2023-03-27T11:24:24.917Z,0.00
2023-03-27T11:25:24.912Z,1.75
2023-03-27T11:26:25.224Z,0.00
2023-03-27T11:27:24.991Z,0.00
2023-03-27T11:28:24.997Z,0.00
2023-03-27T11:29:25.053Z,0.00
2023-03-27T11:30:25.048Z,0.00
2023-03-27T11:31:25.139Z,8.00
2023-03-27T11:32:25.220Z,10.71
2023-03-27T11:33:25.169Z,3.61
2023-03-27T11:34:28.653Z,6.24
2023-03-27T11:35:25.210Z,6.24
2023-03-27T11:36:25.270Z,3.10
2023-03-27T11:37:25.357Z,3.30
2023-03-27T11:38:25.356Z,1.54
2023-03-27T11:39:25.415Z,1.12
2023-03-27T11:40:25.465Z,0.00
2023-03-27T11:41:25.463Z,1.65
2023-03-27T11:42:25.463Z,2.28
2023-03-27T11:43:25.532Z,0.00
2023-03-27T11:44:25.588Z,0.00
2023-03-27T11:45:25.611Z,0.00
2023-03-27T11:46:25.633Z,0.00
2023-03-27T11:47:25.702Z,0.00
2023-03-27T11:48:25.748Z,0.00
2023-03-27T11:49:25.727Z,0.00
2023-03-27T11:50:25.745Z,0.00
2023-03-27T11:51:25.775Z,0.00
2023-03-27T11:52:25.823Z,0.58
2023-03-27T11:53:25.807Z,0.00
2023-03-27T11:54:25.845Z,0.00
2023-03-27T11:55:25.892Z,3.40
2023-03-27T11:56:25.897Z,0.00
2023-03-27T11:57:25.946Z,0.00
2023-03-27T11:58:26.024Z,0.00
2023-03-27T11:59:26.030Z,0.00
2023-03-27T12:00:26.068Z,0.00
2023-03-27T12:01:26.074Z,0.00
2023-03-27T12:02:26.158Z,0.00
2023-03-27T12:03:26.228Z,0.00
2023-03-27T12:04:26.233Z,0.00
2023-03-27T12:05:26.221Z,0.00
2023-03-27T12:06:26.254Z,1.01
2023-03-27T12:07:35.248Z,0.00
2023-03-27T12:08:26.328Z,0.00
2023-03-27T12:09:26.324Z,0.00
2023-03-27T12:10:29.070Z,0.00
2023-03-27T12:11:26.355Z,2.28
2023-03-27T12:12:26.346Z,0.00
2023-03-27T12:13:38.636Z,2.17
2023-03-27T12:14:34.362Z,0.58
2023-03-27T12:15:26.427Z,0.58
2023-03-27T12:16:26.516Z,0.00
2023-03-27T12:17:26.589Z,0.00
2023-03-27T12:18:35.350Z,0.00
2023-03-27T12:19:28.895Z,0.00
2023-03-27T12:20:28.519Z,0.69
2023-03-27T12:21:26.641Z,0.90
2023-03-27T12:22:26.675Z,1.75
2023-03-27T12:23:26.667Z,2.59
2023-03-27T12:24:26.715Z,5.28
2023-03-27T12:25:26.744Z,5.86
2023-03-27T12:26:26.749Z,4.70
2023-03-27T12:27:26.818Z,3.30
2023-03-27T12:28:26.864Z,4.70
2023-03-27T12:29:26.923Z,0.69
2023-03-27T12:30:26.990Z,4.01
2023-03-27T12:31:27.070Z,5.57
2023-03-27T12:32:27.102Z,2.59
2023-03-27T12:33:27.100Z,2.79
2023-03-27T12:34:27.141Z,5.19
2023-03-27T12:35:27.234Z,8.62
2023-03-27T12:36:27.160Z,1.65
2023-03-27T12:37:27.188Z,3.20
2023-03-27T12:38:27.199Z,4.80
2023-03-27T12:39:27.265Z,3.91
2023-03-27T12:40:27.316Z,3.91
2023-03-27T12:41:27.338Z,1.65
2023-03-27T12:42:27.423Z,4.50
2023-03-27T12:43:27.388Z,7.17
2023-03-27T12:44:27.417Z,3.71
2023-03-27T12:45:27.470Z,7.54
2023-03-27T12:46:27.501Z,2.17
2023-03-27T12:47:27.516Z,4.30
2023-03-27T12:48:27.489Z,3.00
2023-03-27T12:49:40.625Z,0.00
2023-03-27T12:50:27.560Z,4.50
2023-03-27T12:51:27.603Z,5.95
2023-03-27T12:52:27.744Z,0.80
2023-03-27T12:53:27.664Z,0.00
2023-03-27T12:54:27.663Z,0.58
2023-03-27T12:55:27.652Z,0.47
2023-03-27T12:56:27.692Z,0.00
2023-03-27T12:57:27.905Z,0.80
2023-03-27T12:58:27.770Z,1.01
2023-03-27T12:59:27.726Z,0.00
2023-03-27T13:00:27.765Z,0.00
2023-03-27T13:01:27.861Z,0.00
2023-03-27T13:02:28.098Z,0.00
2023-03-27T13:03:28.070Z,0.00
2023-03-27T13:04:27.982Z,0.80
2023-03-27T13:05:28.204Z,0.47
2023-03-27T13:06:27.968Z,0.00